Time;durP1;ratioP1;P1;durP2;ratioP2;P2;SDS_P1;SDS_P2;PMS_P1;PMS_P2;Temp;Humidity;BMP_temperature;BMP_pressure;BME280_temperature;BME280_humidity;BME280_pressure;Samples;Min_cycle;Max_cycle;Signal;HPM_P1;HPM_P2
2023/08/06 00:02:13;;;;;;;5.83;5.33;;;18.20;99.90;;;;;;5053321;28;20171;-69
2023/08/06 00:04:38;;;;;;;4.90;4.50;;;18.20;99.90;;;;;;5053132;28;20175;-69
2023/08/06 00:07:04;;;;;;;5.73;5.23;;;18.10;99.90;;;;;;5053382;28;20181;-68
2023/08/06 00:09:30;;;;;;;6.53;5.07;;;17.90;99.90;;;;;;5052263;28;20252;-68
2023/08/06 00:11:55;;;;;;;4.90;4.50;;;17.80;99.90;;;;;;5052849;28;20447;-68
2023/08/06 00:14:21;;;;;;;5.80;4.90;;;17.70;99.90;;;;;;5052702;28;20222;-69
2023/08/06 00:16:47;;;;;;;5.17;4.67;;;17.70;99.90;;;;;;5052959;28;20555;-69
2023/08/06 00:19:12;;;;;;;5.50;4.50;;;17.70;99.90;;;;;;5052883;28;20167;-69
2023/08/06 00:21:38;;;;;;;5.13;4.63;;;17.70;99.90;;;;;;5052839;28;20575;-69
2023/08/06 00:24:04;;;;;;;5.87;5.33;;;17.60;99.90;;;;;;5052731;28;20757;-69
2023/08/06 00:26:29;;;;;;;5.30;4.80;;;17.60;99.90;;;;;;5052719;28;20268;-69
2023/08/06 00:28:55;;;;;;;5.23;4.73;;;17.50;99.90;;;;;;5052354;28;20178;-69
2023/08/06 00:31:20;;;;;;;5.00;4.60;;;17.50;99.90;;;;;;5052611;28;20720;-70
2023/08/06 00:33:46;;;;;;;4.60;4.10;;;17.50;99.90;;;;;;5051996;28;20575;-70
2023/08/06 00:36:12;;;;;;;3.83;3.53;;;17.50;99.90;;;;;;5052418;28;20169;-70
2023/08/06 00:38:37;;;;;;;4.70;4.30;;;17.40;99.90;;;;;;5052573;28;20219;-70
2023/08/06 00:41:03;;;;;;;4.00;3.70;;;17.40;99.90;;;;;;5053449;28;20184;-69
2023/08/06 00:43:28;;;;;;;5.43;4.93;;;17.30;99.90;;;;;;5052332;28;20186;-69
2023/08/06 00:45:54;;;;;;;4.90;4.00;;;17.20;99.90;;;;;;5052359;28;20300;-69
2023/08/06 00:48:20;;;;;;;4.27;3.87;;;17.20;99.90;;;;;;5052091;28;20177;-69
2023/08/06 00:50:46;;;;;;;4.83;4.17;;;17.20;99.90;;;;;;5052390;28;20421;-69
2023/08/06 00:53:12;;;;;;;4.63;4.00;;;17.10;99.90;;;;;;5052211;28;20456;-69
2023/08/06 00:55:38;;;;;;;4.43;4.03;;;17.10;99.90;;;;;;5052125;28;20423;-69
2023/08/06 00:58:04;;;;;;;4.97;4.50;;;17.10;99.90;;;;;;5052130;28;20485;-69
2023/08/06 01:00:30;;;;;;;4.07;3.53;;;17.00;99.90;;;;;;5052173;28;20545;-70
2023/08/06 01:02:56;;;;;;;4.20;3.90;;;16.90;99.90;;;;;;5051951;28;20870;-70
2023/08/06 01:05:23;;;;;;;5.00;4.17;;;16.90;99.90;;;;;;5051923;28;20408;-69
2023/08/06 01:08:08;;;;;;;4.03;3.60;;;16.80;99.90;;;;;;5052055;28;20485;-69
2023/08/06 01:10:34;;;;;;;4.33;3.93;;;16.70;99.90;;;;;;5051877;28;20448;-69
2023/08/06 01:13:16;;;;;;;6.17;4.47;;;16.70;99.90;;;;;;5051615;28;20459;-69
2023/08/06 01:15:55;;;;;;;6.67;4.83;;;16.60;99.90;;;;;;5051449;28;20162;-69
2023/08/06 01:18:21;;;;;;;4.83;4.33;;;16.60;99.90;;;;;;5051244;28;20897;-69
2023/08/06 01:20:47;;;;;;;4.53;4.03;;;16.60;99.90;;;;;;5051148;28;20405;-69
2023/08/06 01:23:12;;;;;;;3.83;3.53;;;16.70;99.90;;;;;;5051717;28;20221;-69
2023/08/06 01:26:21;;;;;;;4.67;4.27;;;16.70;99.90;;;;;;5051415;28;20182;-69
2023/08/06 01:28:59;;;;;;;5.90;3.80;;;16.70;99.90;;;;;;5051625;28;20273;-69
2023/08/06 01:31:38;;;;;;;5.97;4.00;;;16.80;99.90;;;;;;5047461;28;20391;-69
2023/08/06 01:34:13;;;;;;;2.77;2.57;;;16.80;99.90;;;;;;5047722;28;20993;-69
2023/08/06 01:36:39;;;;;;;4.83;4.33;;;16.70;99.90;;;;;;5047921;28;20487;-68
2023/08/06 01:39:05;;;;;;;3.10;2.90;;;16.80;99.90;;;;;;5051697;28;20925;-69
2023/08/06 01:41:30;;;;;;;3.50;3.30;;;16.70;99.90;;;;;;5051498;28;20394;-69
2023/08/06 01:43:56;;;;;;;3.43;3.17;;;16.70;99.90;;;;;;5051777;28;20197;-69
2023/08/06 01:46:21;;;;;;;3.97;3.13;;;16.70;99.90;;;;;;5050968;28;20166;-69
2023/08/06 01:48:47;;;;;;;3.37;2.90;;;16.70;99.90;;;;;;5051240;28;20589;-69
2023/08/06 01:51:13;;;;;;;3.10;2.77;;;16.80;99.90;;;;;;5051504;28;20245;-69
2023/08/06 01:53:38;;;;;;;4.60;3.40;;;17.00;99.90;;;;;;5047112;28;20203;-69
2023/08/06 01:56:04;;;;;;;3.87;3.47;;;17.00;99.90;;;;;;5051349;28;20167;-68
2023/08/06 01:58:29;;;;;;;3.00;2.73;;;16.90;99.90;;;;;;5051801;28;20177;-69
2023/08/06 02:00:55;;;;;;;3.60;3.30;;;16.80;99.90;;;;;;5051501;28;20716;-69
2023/08/06 02:03:20;;;;;;;6.40;3.70;;;16.70;99.90;;;;;;5051198;28;20193;-69
2023/08/06 02:05:46;;;;;;;2.93;2.73;;;16.60;99.90;;;;;;5051390;28;20270;-69
2023/08/06 02:08:11;;;;;;;3.57;3.10;;;16.70;99.90;;;;;;5051809;28;20265;-69
2023/08/06 02:10:37;;;;;;;4.27;2.80;;;16.60;99.90;;;;;;5051600;28;20237;-69
2023/08/06 02:13:02;;;;;;;3.37;3.07;;;16.60;99.90;;;;;;5075577;22;20730;-69
2023/08/06 02:15:28;;;;;;;3.37;3.07;;;16.60;99.90;;;;;;5051826;28;20687;-71
2023/08/06 02:17:54;;;;;;;5.77;3.30;;;16.50;99.90;;;;;;5051598;28;20224;-71
2023/08/06 02:20:19;;;;;;;3.13;2.83;;;16.50;99.90;;;;;;5051932;28;20169;-69
2023/08/06 02:22:45;;;;;;;3.93;3.63;;;16.40;99.90;;;;;;5034121;28;20170;-70
2023/08/06 02:25:10;;;;;;;3.13;2.93;;;16.30;99.90;;;;;;5051815;28;20692;-70
2023/08/06 02:27:37;;;;;;;4.00;3.40;;;16.30;99.90;;;;;;5051945;28;20186;-70
2023/08/06 02:30:04;;;;;;;2.90;2.70;;;16.20;99.90;;;;;;5051452;28;20604;-70
2023/08/06 02:32:31;;;;;;;3.43;3.13;;;16.20;99.90;;;;;;5053683;28;20439;-70
2023/08/06 02:34:57;;;;;;;3.63;3.10;;;16.20;99.90;;;;;;5055415;28;20493;-70
2023/08/06 02:37:22;;;;;;;3.00;2.80;;;16.20;99.90;;;;;;5055837;28;20433;-70
2023/08/06 02:39:48;;;;;;;3.53;3.07;;;16.10;99.90;;;;;;5055784;28;20161;-70
2023/08/06 02:42:13;;;;;;;5.47;3.90;;;16.20;99.90;;;;;;5055516;28;20170;-70
2023/08/06 02:44:39;;;;;;;4.30;3.90;;;16.10;99.90;;;;;;5055032;28;20195;-68
2023/08/06 02:47:05;;;;;;;3.70;3.23;;;16.10;99.90;;;;;;5055485;28;20171;-70
2023/08/06 02:49:30;;;;;;;4.50;3.40;;;16.00;99.90;;;;;;5055093;28;20177;-70
2023/08/06 02:51:56;;;;;;;3.63;3.10;;;16.00;99.90;;;;;;5055023;28;20410;-70
2023/08/06 02:54:22;;;;;;;4.93;3.50;;;16.00;99.90;;;;;;5055319;28;20192;-70
2023/08/06 02:56:47;;;;;;;3.40;2.80;;;15.90;99.90;;;;;;5055405;28;20678;-70
2023/08/06 02:59:13;;;;;;;3.03;2.80;;;15.90;99.90;;;;;;5055409;28;20479;-71
2023/08/06 03:01:39;;;;;;;3.90;3.00;;;15.90;99.90;;;;;;5055310;28;20649;-71
2023/08/06 03:04:05;;;;;;;2.90;2.70;;;15.90;99.90;;;;;;5055193;28;20423;-71
2023/08/06 03:06:30;;;;;;;4.43;2.90;;;16.00;99.90;;;;;;5055498;28;20169;-71
2023/08/06 03:08:56;;;;;;;4.97;3.17;;;15.90;99.90;;;;;;5055148;28;20525;-71
2023/08/06 03:11:21;;;;;;;3.83;2.93;;;16.00;99.90;;;;;;5055376;28;20553;-71
2023/08/06 03:13:48;;;;;;;3.10;2.80;;;15.90;99.90;;;;;;5054793;28;20197;-71
2023/08/06 03:16:13;;;;;;;3.30;3.00;;;15.90;99.90;;;;;;5054912;28;20170;-70
2023/08/06 03:18:39;;;;;;;4.90;2.50;;;16.00;99.90;;;;;;5054720;28;20406;-72
2023/08/06 03:21:05;;;;;;;3.20;2.83;;;16.20;99.90;;;;;;5054861;28;20165;-70
2023/08/06 03:23:30;;;;;;;5.03;2.40;;;16.20;99.90;;;;;;5054761;28;20197;-70
2023/08/06 03:25:56;;;;;;;3.93;2.93;;;16.20;99.90;;;;;;5054964;28;20646;-71
2023/08/06 03:28:22;;;;;;;3.17;2.67;;;16.10;99.90;;;;;;5054658;28;20216;-70
2023/08/06 03:30:48;;;;;;;3.60;2.90;;;16.20;99.90;;;;;;5054426;28;20173;-69
2023/08/06 03:33:13;;;;;;;3.30;3.00;;;16.30;99.90;;;;;;5036260;28;21004;-71
2023/08/06 03:35:39;;;;;;;4.73;2.83;;;16.30;99.90;;;;;;5054647;28;20251;-70
2023/08/06 03:38:05;;;;;;;2.90;2.50;;;16.20;99.90;;;;;;5053895;28;20468;-70
2023/08/06 03:40:30;;;;;;;2.57;2.37;;;16.30;99.90;;;;;;5054738;28;20170;-70
2023/08/06 03:42:56;;;;;;;4.10;2.40;;;16.40;99.90;;;;;;5053521;28;20190;-69
2023/08/06 03:45:21;;;;;;;2.90;2.57;;;16.60;99.90;;;;;;5053709;28;20232;-70
2023/08/06 03:47:47;;;;;;;5.57;2.70;;;16.60;99.90;;;;;;5053991;28;20174;-70
2023/08/06 03:50:13;;;;;;;2.57;2.33;;;16.50;99.90;;;;;;5054455;28;20174;-71
2023/08/06 03:52:38;;;;;;;4.43;2.87;;;16.40;99.90;;;;;;5054173;28;20232;-70
2023/08/06 03:55:04;;;;;;;7.37;2.70;;;16.40;99.90;;;;;;5054408;28;20181;-70
2023/08/06 03:57:29;;;;;;;2.80;2.00;;;16.60;99.90;;;;;;5054221;28;20169;-70
2023/08/06 03:59:55;;;;;;;6.03;2.67;;;16.60;99.90;;;;;;5053836;28;20719;-70
2023/08/06 04:02:20;;;;;;;3.30;2.43;;;16.50;99.90;;;;;;5054162;28;20647;-70
2023/08/06 04:04:46;;;;;;;3.33;2.37;;;16.50;99.90;;;;;;5053796;28;20197;-69
2023/08/06 04:07:11;;;;;;;3.20;2.90;;;16.40;99.90;;;;;;5054564;28;20190;-70
2023/08/06 04:09:56;;;;;;;3.67;2.47;;;16.50;99.90;;;;;;5054428;28;20253;-70
2023/08/06 04:12:22;;;;;;;2.97;2.60;;;16.60;99.90;;;;;;5054114;28;20588;-70
2023/08/06 04:14:48;;;;;;;4.83;2.30;;;16.70;99.90;;;;;;5053734;28;20539;-71
2023/08/06 04:17:13;;;;;;;4.20;2.37;;;16.70;99.90;;;;;;5053796;28;20205;-71
2023/08/06 04:19:39;;;;;;;3.03;2.47;;;16.60;99.90;;;;;;5053773;28;20174;-69
2023/08/06 04:22:04;;;;;;;2.57;2.37;;;16.60;99.90;;;;;;5053913;28;20690;-70
2023/08/06 04:24:30;;;;;;;3.93;2.43;;;16.70;99.90;;;;;;5053809;28;20198;-71
2023/08/06 04:26:55;;;;;;;3.50;2.33;;;16.80;99.90;;;;;;5053843;28;20163;-69
2023/08/06 04:29:21;;;;;;;4.20;2.47;;;16.80;99.90;;;;;;5053776;28;20171;-70
2023/08/06 04:31:46;;;;;;;2.10;1.90;;;16.80;99.90;;;;;;5053412;28;20235;-70
2023/08/06 04:34:12;;;;;;;3.33;2.30;;;16.90;99.90;;;;;;5053265;28;20229;-70
2023/08/06 04:36:38;;;;;;;4.63;2.50;;;16.90;99.90;;;;;;5053336;28;20535;-70
2023/08/06 04:39:04;;;;;;;2.27;2.10;;;17.00;99.90;;;;;;5053357;28;20170;-71
2023/08/06 04:41:30;;;;;;;3.70;2.20;;;16.90;99.90;;;;;;5053458;28;20414;-71
2023/08/06 04:43:56;;;;;;;5.37;3.10;;;16.90;99.90;;;;;;5053351;28;20285;-71
2023/08/06 04:46:22;;;;;;;2.70;2.50;;;16.90;99.90;;;;;;5053195;28;20543;-70
2023/08/06 04:48:47;;;;;;;2.40;2.10;;;16.90;99.90;;;;;;5053093;28;20483;-71
2023/08/06 04:51:14;;;;;;;4.37;2.43;;;16.90;99.90;;;;;;5053482;28;20645;-70
2023/08/06 04:53:40;;;;;;;2.27;2.07;;;16.80;99.90;;;;;;5053037;28;20688;-70
2023/08/06 04:56:05;;;;;;;2.20;2.00;;;16.70;99.90;;;;;;5052754;28;20462;-70
2023/08/06 04:58:31;;;;;;;4.77;2.07;;;16.70;99.90;;;;;;5053059;28;20436;-70
2023/08/06 05:00:56;;;;;;;2.93;2.00;;;16.60;99.90;;;;;;5052892;28;20637;-71
2023/08/06 05:03:22;;;;;;;3.70;2.23;;;16.70;99.90;;;;;;5052659;28;20189;-70
2023/08/06 05:05:48;;;;;;;2.83;2.20;;;16.70;99.90;;;;;;5053331;28;20184;-71
2023/08/06 05:08:19;;;;;;;2.20;1.37;;;16.70;99.90;;;;;;5052996;28;20404;-70
2023/08/06 05:10:47;;;;;;;2.27;1.80;;;16.90;99.90;;;;;;5053147;28;20182;-71
2023/08/06 05:13:12;;;;;;;2.03;1.80;;;16.90;99.90;;;;;;5052649;28;20490;-70
2023/08/06 05:15:39;;;;;;;2.77;1.70;;;16.90;99.90;;;;;;5052728;28;20888;-69
2023/08/06 05:18:05;;;;;;;3.90;1.70;;;17.00;99.90;;;;;;5052618;28;20160;-71
2023/08/06 05:20:30;;;;;;;4.03;1.20;;;17.00;99.90;;;;;;5052526;28;20465;-70
2023/08/06 05:22:56;;;;;;;2.20;1.43;;;16.90;99.90;;;;;;5052834;28;20635;-71
2023/08/06 05:25:22;;;;;;;4.07;1.73;;;16.90;99.90;;;;;;5052763;28;20175;-71
2023/08/06 05:27:47;;;;;;;1.70;1.60;;;17.10;99.90;;;;;;5052695;28;20197;-71
2023/08/06 05:30:13;;;;;;;3.60;1.57;;;17.10;99.90;;;;;;5052089;28;20174;-71
2023/08/06 05:32:38;;;;;;;1.57;1.47;;;17.20;99.90;;;;;;5052197;28;20246;-70
2023/08/06 05:35:04;;;;;;;2.53;1.90;;;17.20;99.90;;;;;;5052372;28;20675;-71
2023/08/06 05:37:29;;;;;;;2.70;1.60;;;17.40;99.90;;;;;;5052623;28;20170;-71
2023/08/06 05:39:55;;;;;;;2.50;1.43;;;17.50;99.90;;;;;;5052629;28;20166;-71
2023/08/06 05:42:21;;;;;;;2.47;1.50;;;17.60;99.90;;;;;;5052484;28;20193;-69
2023/08/06 05:44:46;;;;;;;2.80;1.50;;;17.50;99.90;;;;;;5052421;28;20194;-70
2023/08/06 05:47:12;;;;;;;4.70;1.43;;;17.60;99.90;;;;;;5052361;28;20173;-70
2023/08/06 05:49:37;;;;;;;1.53;1.10;;;17.50;99.90;;;;;;5052096;28;20545;-71
2023/08/06 05:52:06;;;;;;;5.00;1.47;;;17.70;99.90;;;;;;5052334;28;20177;-71
2023/08/06 05:54:31;;;;;;;1.83;1.17;;;17.70;99.90;;;;;;5052561;28;20312;-70
2023/08/06 05:56:57;;;;;;;3.53;1.50;;;17.60;99.90;;;;;;5048173;28;20918;-70
2023/08/06 05:59:22;;;;;;;1.20;0.90;;;17.70;99.90;;;;;;5052250;28;20175;-70
2023/08/06 06:01:48;;;;;;;1.67;0.90;;;17.50;99.90;;;;;;5051972;28;20178;-71
2023/08/06 06:04:13;;;;;;;1.70;1.00;;;17.60;99.90;;;;;;5052170;28;20190;-70
2023/08/06 06:06:41;;;;;;;1.93;0.90;;;17.60;99.90;;;;;;5053280;28;20201;-70
2023/08/06 06:09:07;;;;;;;1.80;0.70;;;17.20;99.90;;;;;;5056367;28;20181;-69
2023/08/06 06:11:32;;;;;;;3.60;1.10;;;17.20;99.90;;;;;;5056432;28;20460;-69
2023/08/06 06:13:58;;;;;;;0.90;0.70;;;17.30;99.90;;;;;;5056049;28;20706;-70
2023/08/06 06:16:23;;;;;;;1.17;0.80;;;17.50;99.90;;;;;;5056021;28;20169;-70
2023/08/06 06:18:49;;;;;;;4.03;1.00;;;17.40;99.90;;;;;;5055834;28;20269;-70
2023/08/06 06:21:14;;;;;;;1.40;0.80;;;17.30;99.90;;;;;;5056005;28;20640;-70
2023/08/06 06:23:40;;;;;;;1.43;0.73;;;17.30;99.90;;;;;;5056126;28;20247;-70
2023/08/06 06:26:05;;;;;;;1.70;0.90;;;17.10;99.90;;;;;;5056052;28;20176;-70
2023/08/06 06:28:31;;;;;;;1.13;0.77;;;17.30;99.90;;;;;;5055885;28;20191;-70
2023/08/06 06:31:00;;;;;;;1.60;0.87;;;17.60;99.90;;;;;;5055586;28;20291;-69
2023/08/06 06:33:26;;;;;;;3.80;1.10;;;17.50;99.90;;;;;;5055653;28;20226;-70
2023/08/06 06:35:52;;;;;;;2.13;0.90;;;17.50;99.90;;;;;;5055880;28;20825;-71
2023/08/06 06:38:17;;;;;;;1.50;0.93;;;17.70;99.90;;;;;;5055756;28;20641;-69
2023/08/06 06:40:43;;;;;;;1.73;0.70;;;17.50;99.90;;;;;;5055565;28;20174;-69
2023/08/06 06:43:08;;;;;;;1.30;0.80;;;17.50;99.90;;;;;;5055625;28;20617;-70
2023/08/06 06:45:34;;;;;;;1.50;0.93;;;17.60;99.90;;;;;;5055318;28;20683;-70
2023/08/06 06:47:59;;;;;;;1.30;0.80;;;17.80;99.90;;;;;;5055579;28;20174;-69
2023/08/06 06:50:26;;;;;;;4.10;1.03;;;17.70;99.90;;;;;;5055078;28;20174;-70
2023/08/06 06:52:51;;;;;;;1.83;1.00;;;17.80;99.90;;;;;;5055622;28;20198;-70
2023/08/06 06:55:17;;;;;;;1.83;1.00;;;17.80;99.90;;;;;;5055438;28;20401;-70
2023/08/06 06:57:42;;;;;;;6.60;0.80;;;17.80;99.90;;;;;;5055357;28;20760;-70
2023/08/06 07:00:08;;;;;;;2.03;0.90;;;17.80;99.90;;;;;;5055025;28;20548;-69
2023/08/06 07:02:34;;;;;;;1.10;0.80;;;17.70;99.90;;;;;;5055171;28;20170;-70
2023/08/06 07:04:59;;;;;;;1.33;0.70;;;17.50;99.90;;;;;;5055156;28;20847;-69
2023/08/06 07:07:25;;;;;;;1.97;0.90;;;17.60;99.90;;;;;;5055427;28;20695;-71
2023/08/06 07:09:50;;;;;;;0.93;0.80;;;17.90;99.90;;;;;;5055180;28;20610;-71
2023/08/06 07:12:16;;;;;;;1.30;0.80;;;17.90;99.90;;;;;;5054894;28;20187;-70
2023/08/06 07:14:42;;;;;;;2.23;0.70;;;18.00;99.90;;;;;;5054738;28;20285;-70
2023/08/06 07:17:07;;;;;;;1.20;0.70;;;17.90;99.90;;;;;;5054470;28;20174;-71
2023/08/06 07:19:33;;;;;;;1.90;1.13;;;17.80;99.90;;;;;;5054176;28;20183;-70
2023/08/06 07:21:58;;;;;;;1.37;0.80;;;17.80;99.90;;;;;;5055038;28;20174;-70
2023/08/06 07:24:24;;;;;;;1.03;0.70;;;17.70;99.90;;;;;;5054524;28;20186;-71
2023/08/06 07:26:49;;;;;;;1.27;0.73;;;17.50;99.90;;;;;;5054718;28;20640;-70
2023/08/06 07:29:19;;;;;;;1.00;0.90;;;17.40;99.90;;;;;;5054888;28;20256;-70
2023/08/06 07:31:45;;;;;;;1.57;0.77;;;17.50;99.90;;;;;;5037790;28;20174;-70
2023/08/06 07:34:10;;;;;;;2.30;0.60;;;17.40;99.90;;;;;;5054330;28;20456;-70
2023/08/06 07:36:36;;;;;;;1.03;0.70;;;17.50;99.90;;;;;;5054266;28;20175;-70
2023/08/06 07:39:01;;;;;;;1.60;0.73;;;17.50;99.90;;;;;;5054878;28;20254;-70
2023/08/06 07:41:27;;;;;;;1.10;0.60;;;17.40;99.90;;;;;;5054643;28;20174;-70
2023/08/06 07:43:52;;;;;;;1.30;0.80;;;17.30;99.90;;;;;;5054555;28;20751;-71
2023/08/06 07:46:18;;;;;;;1.00;0.77;;;17.20;99.90;;;;;;5054520;28;20643;-70
2023/08/06 07:48:43;;;;;;;1.13;0.70;;;17.50;99.90;;;;;;5054527;28;20529;-70
2023/08/06 07:51:10;;;;;;;1.40;0.60;;;17.60;99.90;;;;;;5054709;28;20235;-69
2023/08/06 07:53:35;;;;;;;1.73;0.67;;;17.80;99.90;;;;;;5054644;28;20198;-71
2023/08/06 07:56:02;;;;;;;0.80;0.60;;;17.80;99.90;;;;;;5036483;28;20447;-70
2023/08/06 07:58:29;;;;;;;1.10;0.60;;;17.70;99.90;;;;;;5054626;28;20174;-69
2023/08/06 08:00:55;;;;;;;0.80;0.50;;;17.50;99.90;;;;;;5054119;28;20440;-71
2023/08/06 08:03:20;;;;;;;1.00;0.50;;;17.60;99.90;;;;;;5053232;28;20472;-70
2023/08/06 08:05:46;;;;;;;1.00;0.60;;;17.70;99.90;;;;;;5053858;28;20170;-69
2023/08/06 08:08:11;;;;;;;3.00;0.60;;;17.90;99.90;;;;;;5054264;28;20220;-70
2023/08/06 08:10:38;;;;;;;0.80;0.50;;;17.80;99.90;;;;;;5054259;28;20199;-70
2023/08/06 08:13:04;;;;;;;0.90;0.50;;;17.40;99.90;;;;;;5078120;22;20241;-69
2023/08/06 08:15:31;;;;;;;1.00;0.50;;;17.50;99.90;;;;;;5052783;28;21003;-67
2023/08/06 08:17:57;;;;;;;1.13;0.53;;;17.70;99.90;;;;;;5034452;28;20401;-68
2023/08/06 08:20:23;;;;;;;1.03;0.60;;;18.00;99.90;;;;;;5052517;28;20837;-67
2023/08/06 08:22:49;;;;;;;0.93;0.50;;;18.00;99.90;;;;;;5052590;28;20586;-68
2023/08/06 08:25:15;;;;;;;0.97;0.60;;;18.30;99.90;;;;;;5052437;28;20162;-68
2023/08/06 08:27:41;;;;;;;0.80;0.50;;;18.30;99.90;;;;;;5053152;28;20665;-67
2023/08/06 08:30:07;;;;;;;0.83;0.57;;;18.40;99.90;;;;;;5051792;28;20432;-68
2023/08/06 08:32:33;;;;;;;0.80;0.50;;;18.60;99.90;;;;;;5052514;28;20208;-67
2023/08/06 08:34:58;;;;;;;0.70;0.40;;;18.80;99.90;;;;;;5052172;28;20433;-67
2023/08/06 08:37:24;;;;;;;1.20;0.50;;;19.00;99.90;;;;;;5052551;28;20236;-67
2023/08/06 08:39:50;;;;;;;1.43;0.70;;;18.70;99.90;;;;;;5052495;28;20622;-68
2023/08/06 08:42:16;;;;;;;0.70;0.40;;;18.80;99.90;;;;;;5052395;28;20492;-67
2023/08/06 08:44:45;;;;;;;1.10;0.70;;;18.70;99.90;;;;;;5052333;28;20199;-68
2023/08/06 08:47:11;;;;;;;0.90;0.50;;;18.50;99.90;;;;;;5052253;28;20463;-68
2023/08/06 08:49:37;;;;;;;0.80;0.50;;;18.70;99.90;;;;;;5052022;28;20775;-69
2023/08/06 08:52:07;;;;;;;1.10;0.60;;;18.80;99.90;;;;;;5034581;28;20451;-68
2023/08/06 08:54:34;;;;;;;3.33;0.50;;;18.60;99.90;;;;;;5048556;28;20459;-68
2023/08/06 08:56:59;;;;;;;0.80;0.50;;;18.30;99.90;;;;;;5052604;28;20413;-69
2023/08/06 08:59:28;;;;;;;0.80;0.40;;;18.40;99.90;;;;;;5052050;28;20749;-68
2023/08/06 09:01:54;;;;;;;0.70;0.40;;;18.60;99.90;;;;;;5052129;28;20166;-68
2023/08/06 09:04:21;;;;;;;1.33;0.47;;;18.90;99.90;;;;;;5051636;28;20867;-69
2023/08/06 09:06:54;;;;;;;0.70;0.40;;;18.90;99.90;;;;;;5052235;28;20440;-70
2023/08/06 09:09:28;;;;;;;0.80;0.40;;;19.00;99.90;;;;;;5052400;28;20412;-70
2023/08/06 09:11:59;;;;;;;1.40;0.97;;;18.80;99.90;;;;;;5052245;28;20886;-68
2023/08/06 09:14:26;;;;;;;0.70;0.40;;;18.80;99.90;;;;;;5051701;28;20475;-70
2023/08/06 09:16:51;;;;;;;1.10;0.40;;;18.50;99.90;;;;;;5052083;28;20492;-70
2023/08/06 09:19:17;;;;;;;0.80;0.40;;;18.60;99.90;;;;;;5051318;28;20929;-68
2023/08/06 09:21:43;;;;;;;0.80;0.60;;;18.70;99.90;;;;;;5051673;28;20258;-69
2023/08/06 09:24:10;;;;;;;1.30;0.40;;;18.70;99.90;;;;;;5051860;28;20189;-67
2023/08/06 09:26:45;;;;;;;1.63;0.50;;;18.80;99.90;;;;;;5047909;28;20538;-68
2023/08/06 09:29:11;;;;;;;0.73;0.40;;;19.00;99.90;;;;;;5051565;28;20393;-68
2023/08/06 09:31:48;;;;;;;0.80;0.50;;;19.20;99.90;;;;;;5050929;28;20428;-67
2023/08/06 09:34:18;;;;;;;1.27;0.40;;;19.40;99.90;;;;;;5050114;28;20459;-68
2023/08/06 09:36:47;;;;;;;0.90;0.40;;;19.70;99.90;;;;;;5051660;28;20397;-68
2023/08/06 09:39:17;;;;;;;0.70;0.50;;;19.80;99.90;;;;;;5051466;28;20946;-68
2023/08/06 09:41:44;;;;;;;0.80;0.40;;;19.40;99.90;;;;;;5051709;28;20501;-68
2023/08/06 09:44:16;;;;;;;0.80;0.40;;;19.00;99.90;;;;;;5051252;28;20420;-68
2023/08/06 09:46:41;;;;;;;1.20;0.50;;;18.90;99.90;;;;;;5051386;28;20409;-68
2023/08/06 09:49:08;;;;;;;0.70;0.40;;;18.70;99.90;;;;;;5051095;28;20408;-69
2023/08/06 09:51:34;;;;;;;1.00;0.80;;;19.40;99.90;;;;;;5051635;28;20170;-68
2023/08/06 09:54:01;;;;;;;1.23;0.50;;;19.30;99.90;;;;;;5033429;28;20445;-68
2023/08/06 09:56:28;;;;;;;0.80;0.50;;;19.70;99.90;;;;;;5051336;28;20492;-67
2023/08/06 09:58:55;;;;;;;1.30;0.73;;;19.80;99.90;;;;;;5033428;28;20406;-68
2023/08/06 10:01:22;;;;;;;0.97;0.70;;;19.60;99.90;;;;;;5051298;28;20397;-68
2023/08/06 10:03:49;;;;;;;1.80;0.60;;;18.80;99.90;;;;;;5050561;28;20550;-67
2023/08/06 10:06:15;;;;;;;0.80;0.60;;;19.00;99.90;;;;;;5051350;28;20511;-68
2023/08/06 10:08:42;;;;;;;0.80;0.47;;;19.20;99.90;;;;;;5051309;28;20582;-69
2023/08/06 10:11:08;;;;;;;0.80;0.43;;;19.30;99.90;;;;;;5051566;28;20626;-70
2023/08/06 10:13:35;;;;;;;1.20;0.60;;;18.70;99.90;;;;;;5051416;28;20542;-69
2023/08/06 10:16:02;;;;;;;0.90;0.50;;;18.70;99.90;;;;;;5051389;28;20760;-69
2023/08/06 10:18:28;;;;;;;1.17;0.60;;;18.60;99.90;;;;;;5051206;28;20758;-69
2023/08/06 10:20:54;;;;;;;1.03;0.60;;;18.60;99.90;;;;;;5051247;28;20488;-70
2023/08/06 10:23:32;;;;;;;0.77;0.50;;;18.60;99.90;;;;;;5051290;28;20509;-69
2023/08/06 10:25:59;;;;;;;1.00;0.50;;;18.20;99.90;;;;;;5051044;28;20547;-69
2023/08/06 10:28:36;;;;;;;0.80;0.50;;;18.20;99.90;;;;;;5051446;28;20409;-69
2023/08/06 10:31:01;;;;;;;0.90;0.53;;;18.10;99.90;;;;;;5050898;28;20909;-69
2023/08/06 10:33:44;;;;;;;0.77;0.60;;;18.10;99.90;;;;;;5050678;28;20493;-68
2023/08/06 10:36:10;;;;;;;0.80;0.50;;;18.20;99.90;;;;;;5050720;28;20691;-69
2023/08/06 10:38:47;;;;;;;1.53;0.80;;;18.10;99.90;;;;;;5051074;28;20405;-69
2023/08/06 10:41:29;;;;;;;1.00;0.53;;;18.20;99.90;;;;;;5047431;28;20400;-69
2023/08/06 10:44:08;;;;;;;0.70;0.40;;;18.30;99.90;;;;;;5048355;28;20424;-69
2023/08/06 10:46:34;;;;;;;1.10;0.50;;;18.20;99.90;;;;;;5051068;28;20409;-69
2023/08/06 10:49:00;;;;;;;0.77;0.50;;;18.30;99.90;;;;;;5050340;28;20412;-70
2023/08/06 10:51:27;;;;;;;0.80;0.40;;;18.80;99.90;;;;;;5051073;28;20170;-69
2023/08/06 10:53:53;;;;;;;0.80;0.53;;;19.10;99.90;;;;;;5053490;28;20918;-70
2023/08/06 10:56:22;;;;;;;1.10;0.50;;;19.10;99.90;;;;;;5054992;28;20408;-69
2023/08/06 10:58:48;;;;;;;0.80;0.50;;;19.10;99.90;;;;;;5035827;28;20613;-68
2023/08/06 11:01:15;;;;;;;0.80;0.60;;;18.90;99.90;;;;;;5054459;28;20875;-70
2023/08/06 11:03:45;;;;;;;2.53;0.60;;;18.80;99.90;;;;;;5054235;28;20435;-68
2023/08/06 11:06:10;;;;;;;0.90;0.53;;;18.60;99.90;;;;;;5036779;28;20899;-69
2023/08/06 11:08:38;;;;;;;1.50;0.43;;;18.40;99.90;;;;;;5054227;28;20454;-69
2023/08/06 11:11:14;;;;;;;0.87;0.50;;;18.30;99.90;;;;;;5054151;28;20166;-69
2023/08/06 11:13:46;;;;;;;4.67;0.60;;;18.40;99.90;;;;;;5053759;28;20495;-68
2023/08/06 11:16:15;;;;;;;1.43;0.60;;;18.10;99.90;;;;;;5053120;28;20823;-69
2023/08/06 11:18:44;;;;;;;0.97;0.60;;;18.10;99.90;;;;;;5053946;28;20907;-69
2023/08/06 11:21:11;;;;;;;1.37;0.60;;;17.90;99.90;;;;;;5053599;28;20401;-69
2023/08/06 11:23:37;;;;;;;1.10;0.63;;;17.60;99.90;;;;;;5053929;28;20431;-68
2023/08/06 11:26:03;;;;;;;1.93;0.70;;;17.50;99.90;;;;;;5053358;28;20404;-68
2023/08/06 11:28:28;;;;;;;0.83;0.40;;;17.60;99.90;;;;;;5053791;28;20636;-69
2023/08/06 11:30:56;;;;;;;0.83;0.60;;;17.20;99.90;;;;;;5053651;28;20296;-69
2023/08/06 11:33:23;;;;;;;1.43;0.70;;;17.30;99.90;;;;;;5054039;28;20550;-69
2023/08/06 11:35:49;;;;;;;0.80;0.60;;;17.80;99.90;;;;;;5053463;28;20904;-68
2023/08/06 11:38:16;;;;;;;0.90;0.63;;;18.00;99.90;;;;;;5053653;28;20428;-70
2023/08/06 11:40:43;;;;;;;1.23;0.70;;;18.20;99.90;;;;;;5053835;28;20174;-69
2023/08/06 11:43:09;;;;;;;0.97;0.80;;;18.10;99.90;;;;;;5053440;28;20405;-69
2023/08/06 11:45:37;;;;;;;1.20;0.90;;;17.70;99.90;;;;;;5053168;28;20425;-68
2023/08/06 11:48:04;;;;;;;1.50;0.90;;;17.60;99.90;;;;;;5053421;28;20447;-67
2023/08/06 11:50:30;;;;;;;1.00;0.70;;;17.50;99.90;;;;;;5053106;28;20431;-69
2023/08/06 11:53:00;;;;;;;1.73;1.17;;;17.40;99.90;;;;;;5053463;28;20445;-68
2023/08/06 11:55:28;;;;;;;1.63;1.13;;;17.20;99.90;;;;;;5053473;28;20412;-68
2023/08/06 11:57:54;;;;;;;1.30;1.20;;;17.10;99.90;;;;;;5053377;28;20526;-70
2023/08/06 12:00:22;;;;;;;1.73;0.90;;;17.20;99.90;;;;;;5053047;28;20422;-68
2023/08/06 12:02:50;;;;;;;2.23;1.63;;;17.00;99.90;;;;;;5053141;28;20405;-68
2023/08/06 12:05:17;;;;;;;1.00;0.90;;;16.90;99.90;;;;;;5051744;28;20908;-69
2023/08/06 12:07:47;;;;;;;1.87;0.90;;;16.70;99.90;;;;;;5053994;28;20397;-68
2023/08/06 12:10:14;;;;;;;2.37;1.80;;;16.60;99.90;;;;;;5049159;28;20397;-69
2023/08/06 12:12:40;;;;;;;1.67;1.57;;;16.80;99.90;;;;;;5052932;28;20533;-68
2023/08/06 12:15:07;;;;;;;2.13;1.30;;;16.70;99.90;;;;;;5052593;28;20524;-70
2023/08/06 12:17:33;;;;;;;4.73;2.20;;;16.40;99.90;;;;;;5053035;28;20258;-70
2023/08/06 12:19:58;;;;;;;1.53;1.40;;;16.40;99.90;;;;;;5052587;28;20401;-69
2023/08/06 12:22:24;;;;;;;2.27;1.50;;;16.60;99.90;;;;;;5052936;28;20181;-70
2023/08/06 12:24:50;;;;;;;2.60;1.57;;;16.80;99.90;;;;;;5053201;28;20190;-70
2023/08/06 12:27:18;;;;;;;3.07;1.40;;;16.90;99.90;;;;;;5052794;28;20163;-70
2023/08/06 12:29:45;;;;;;;1.63;1.40;;;17.00;99.90;;;;;;5052356;28;20190;-70
2023/08/06 12:32:12;;;;;;;1.40;1.20;;;17.10;99.90;;;;;;5052560;28;20444;-69
2023/08/06 12:34:39;;;;;;;1.53;1.20;;;17.00;99.90;;;;;;5052437;28;20793;-68
2023/08/06 12:37:05;;;;;;;2.70;1.50;;;17.20;99.90;;;;;;5052713;28;20567;-70
2023/08/06 12:39:31;;;;;;;2.03;1.10;;;17.30;99.90;;;;;;5053032;28;20907;-72
2023/08/06 12:41:57;;;;;;;2.30;1.40;;;17.60;99.90;;;;;;5052945;28;20484;-70
2023/08/06 12:44:24;;;;;;;1.57;1.23;;;17.70;99.90;;;;;;5052272;28;20432;-70
2023/08/06 12:46:50;;;;;;;2.60;1.13;;;18.20;99.90;;;;;;5052385;28;20420;-69